createdAt,value
2023-06-10T00:02:05.984Z,83.10
2023-06-10T00:04:32.915Z,83.20
2023-06-10T00:06:59.855Z,83.30
2023-06-10T00:09:27.754Z,83.40
2023-06-10T00:11:54.753Z,83.50
2023-06-10T00:14:21.648Z,83.60
2023-06-10T00:16:48.567Z,83.70
2023-06-10T00:19:16.890Z,83.90
2023-06-10T00:21:45.764Z,84.00
2023-06-10T00:24:15.161Z,84.00
2023-06-10T00:26:42.677Z,84.10
2023-06-10T00:29:09.963Z,84.30
2023-06-10T00:31:38.120Z,84.40
2023-06-10T00:34:05.459Z,84.50
2023-06-10T00:36:33.682Z,84.50
2023-06-10T00:39:00.591Z,84.60
2023-06-10T00:41:27.574Z,84.70
2023-06-10T00:43:54.545Z,84.70
2023-06-10T00:46:22.444Z,84.60
2023-06-10T00:48:49.572Z,84.70
2023-06-10T00:51:17.622Z,84.60
2023-06-10T00:53:46.631Z,84.50
2023-06-10T00:56:14.789Z,84.80
2023-06-10T00:58:41.713Z,84.60
2023-06-10T01:01:11.859Z,84.40
2023-06-10T01:03:39.204Z,84.50
2023-06-10T01:06:15.769Z,84.60
2023-06-10T01:08:51.786Z,84.60
2023-06-10T01:11:21.985Z,84.50
2023-06-10T01:13:52.518Z,84.30
2023-06-10T01:16:20.874Z,84.10
2023-06-10T01:18:47.755Z,84.10
2023-06-10T01:21:20.601Z,84.00
2023-06-10T01:23:47.521Z,84.00
2023-06-10T01:26:16.521Z,84.00
2023-06-10T01:28:49.814Z,83.90
2023-06-10T01:31:22.316Z,83.60
2023-06-10T01:33:52.807Z,83.50
2023-06-10T01:36:23.107Z,83.50
2023-06-10T01:38:52.539Z,83.40
2023-06-10T01:41:22.188Z,83.30
2023-06-10T01:43:49.958Z,83.30
2023-06-10T01:46:20.763Z,83.20
2023-06-10T01:48:47.811Z,83.00
2023-06-10T01:51:14.726Z,83.00
2023-06-10T01:53:42.914Z,83.00
2023-06-10T01:56:09.720Z,83.00
2023-06-10T01:58:36.714Z,83.00
2023-06-10T02:01:03.694Z,83.00
2023-06-10T02:03:30.883Z,83.00
2023-06-10T02:05:57.811Z,82.90
2023-06-10T02:08:24.663Z,82.90
2023-06-10T02:10:52.854Z,82.80
2023-06-10T02:13:19.688Z,82.80
2023-06-10T02:15:46.511Z,82.80
2023-06-10T02:18:13.356Z,82.80
2023-06-10T02:20:40.329Z,82.80
2023-06-10T02:23:07.209Z,83.70
2023-06-10T02:25:34.091Z,83.10
2023-06-10T02:28:04.458Z,83.40
2023-06-10T02:30:31.467Z,83.30
2023-06-10T02:33:00.271Z,83.20
2023-06-10T02:35:27.378Z,83.10
2023-06-10T02:37:54.302Z,83.00
2023-06-10T02:40:21.430Z,83.00
2023-06-10T02:42:48.268Z,83.30
2023-06-10T02:45:16.592Z,82.90
2023-06-10T02:47:43.583Z,83.00
2023-06-10T02:50:10.822Z,82.90
2023-06-10T02:52:37.772Z,82.80
2023-06-10T02:55:05.237Z,82.70
2023-06-10T02:57:32.134Z,82.70
2023-06-10T02:59:59.616Z,82.50
2023-06-10T03:02:29.477Z,82.60
2023-06-10T03:04:56.689Z,82.60
2023-06-10T03:07:24.139Z,82.50
2023-06-10T03:09:51.673Z,82.50
2023-06-10T03:12:18.633Z,82.50
2023-06-10T03:14:45.535Z,82.40
2023-06-10T03:17:12.441Z,82.50
2023-06-10T03:19:40.696Z,82.30
2023-06-10T03:22:11.865Z,82.20
2023-06-10T03:24:41.091Z,82.10
2023-06-10T03:27:08.676Z,82.00
2023-06-10T03:29:35.828Z,82.10
2023-06-10T03:32:02.849Z,82.20
2023-06-10T03:34:30.918Z,82.20
2023-06-10T03:36:59.375Z,82.30
2023-06-10T03:39:29.896Z,82.40
2023-06-10T03:41:58.229Z,82.50
2023-06-10T03:44:26.968Z,82.40
2023-06-10T03:46:54.267Z,82.50
2023-06-10T03:49:21.101Z,82.70
2023-06-10T03:51:48.078Z,82.70
2023-06-10T03:54:16.327Z,82.80
2023-06-10T03:56:43.145Z,82.80
2023-06-10T03:59:10.065Z,82.90
2023-06-10T04:01:38.537Z,82.90
2023-06-10T04:04:05.701Z,83.10
2023-06-10T04:06:32.744Z,83.40
2023-06-10T04:08:59.633Z,83.70
2023-06-10T04:11:27.892Z,83.90
2023-06-10T04:13:54.754Z,84.10
2023-06-10T04:16:22.349Z,84.10
2023-06-10T04:18:49.336Z,84.30
2023-06-10T04:21:16.340Z,85.00
2023-06-10T04:23:43.265Z,84.30
2023-06-10T04:26:10.979Z,84.40
2023-06-10T04:28:39.383Z,84.30
2023-06-10T04:31:06.256Z,84.10
2023-06-10T04:33:33.584Z,84.00
2023-06-10T04:36:00.817Z,84.00
2023-06-10T04:38:28.202Z,83.90
2023-06-10T04:40:55.040Z,83.90
2023-06-10T04:43:21.956Z,83.80
2023-06-10T04:45:50.126Z,83.80
2023-06-10T04:48:16.993Z,84.00
2023-06-10T04:50:43.846Z,84.10
2023-06-10T04:53:10.725Z,84.20
2023-06-10T04:55:37.612Z,84.40
2023-06-10T04:58:04.525Z,84.70
2023-06-10T05:00:31.362Z,84.70
2023-06-10T05:02:59.595Z,84.60
2023-06-10T05:05:26.490Z,84.50
2023-06-10T05:07:53.349Z,84.40
2023-06-10T05:10:20.263Z,84.20
2023-06-10T05:12:47.071Z,83.90
2023-06-10T05:15:14.072Z,83.90
2023-06-10T05:17:41.187Z,83.70
2023-06-10T05:20:10.700Z,83.40
2023-06-10T05:22:37.518Z,83.20
2023-06-10T05:25:04.958Z,83.00
2023-06-10T05:27:32.003Z,82.90
2023-06-10T05:29:59.179Z,82.70
2023-06-10T05:32:26.166Z,82.60
2023-06-10T05:34:52.998Z,82.60
2023-06-10T05:37:21.257Z,82.50
2023-06-10T05:39:48.123Z,82.50
2023-06-10T05:42:15.091Z,82.40
2023-06-10T05:44:41.982Z,82.30
2023-06-10T05:47:08.908Z,82.20
2023-06-10T05:49:35.830Z,82.80
2023-06-10T05:52:02.692Z,83.40
2023-06-10T05:54:30.928Z,84.30
2023-06-10T05:56:58.030Z,84.90
2023-06-10T05:59:24.900Z,85.20
2023-06-10T06:01:51.782Z,85.20
2023-06-10T06:04:18.753Z,85.10
2023-06-10T06:06:45.735Z,85.10
2023-06-10T06:09:12.680Z,85.00
2023-06-10T06:11:41.017Z,85.00
2023-06-10T06:14:07.937Z,84.80
2023-06-10T06:16:34.864Z,84.30
2023-06-10T06:19:01.756Z,83.60
2023-06-10T06:21:28.606Z,83.00
2023-06-10T06:23:55.568Z,82.50
2023-06-10T06:26:22.430Z,82.20
2023-06-10T06:28:50.732Z,82.10
2023-06-10T06:31:17.701Z,82.50
2023-06-10T06:33:44.992Z,82.90
2023-06-10T06:36:11.800Z,83.20
2023-06-10T06:38:38.650Z,83.40
2023-06-10T06:41:07.574Z,83.40
2023-06-10T06:43:34.958Z,83.20
2023-06-10T06:46:03.224Z,83.10
2023-06-10T06:48:30.354Z,82.70
2023-06-10T06:50:58.941Z,82.50
2023-06-10T06:53:26.141Z,82.20
2023-06-10T06:55:53.120Z,82.00
2023-06-10T06:58:20.046Z,81.90
2023-06-10T07:00:47.112Z,81.80
2023-06-10T07:03:15.405Z,81.50
2023-06-10T07:05:42.487Z,81.30
2023-06-10T07:08:09.557Z,81.20
2023-06-10T07:10:36.527Z,80.90
2023-06-10T07:13:03.622Z,80.80
2023-06-10T07:15:30.601Z,80.80
2023-06-10T07:17:57.626Z,80.50
2023-06-10T07:20:25.917Z,80.20
2023-06-10T07:22:52.863Z,79.60
2023-06-10T07:25:19.896Z,79.20
2023-06-10T07:27:46.775Z,78.70
2023-06-10T07:30:14.298Z,79.00
2023-06-10T07:32:41.259Z,77.80
2023-06-10T07:35:11.612Z,77.30
2023-06-10T07:37:40.269Z,77.00
2023-06-10T07:40:08.272Z,76.80
2023-06-10T07:42:36.342Z,76.60
2023-06-10T07:45:03.283Z,76.30
2023-06-10T07:47:31.152Z,75.80
2023-06-10T07:49:58.178Z,75.70
2023-06-10T07:52:25.422Z,75.40
2023-06-10T07:54:53.648Z,75.20
2023-06-10T07:57:20.920Z,75.00
2023-06-10T07:59:47.788Z,74.80
2023-06-10T08:02:14.706Z,74.80
2023-06-10T08:04:41.690Z,74.60
2023-06-10T08:07:08.609Z,74.40
2023-06-10T08:09:35.973Z,74.20
2023-06-10T08:12:05.416Z,73.70
2023-06-10T08:14:32.263Z,73.80
2023-06-10T08:16:59.374Z,73.90
2023-06-10T08:19:26.226Z,73.80
2023-06-10T08:21:53.072Z,73.70
2023-06-10T08:24:21.095Z,73.50
2023-06-10T08:26:48.244Z,73.50
2023-06-10T08:29:16.486Z,73.70
2023-06-10T08:31:44.111Z,73.50
2023-06-10T08:34:11.295Z,73.40
2023-06-10T08:36:38.138Z,73.20
2023-06-10T08:39:05.256Z,73.10
2023-06-10T08:41:36.717Z,73.10
2023-06-10T08:44:10.025Z,72.90
2023-06-10T08:46:39.681Z,73.40
2023-06-10T08:49:10.694Z,72.90
2023-06-10T08:51:38.464Z,72.90
2023-06-10T08:54:12.895Z,72.90
2023-06-10T08:56:41.330Z,73.00
2023-06-10T08:59:09.184Z,73.00
2023-06-10T09:01:36.900Z,72.90
2023-06-10T09:04:05.741Z,73.00
2023-06-10T09:06:35.131Z,72.90
2023-06-10T09:09:03.888Z,72.50
2023-06-10T09:11:32.535Z,72.20
2023-06-10T09:13:59.371Z,72.20
2023-06-10T09:16:26.513Z,72.10
2023-06-10T09:18:56.165Z,72.90
2023-06-10T09:21:24.956Z,71.90
2023-06-10T09:23:52.266Z,71.70
2023-06-10T09:26:19.406Z,71.80
2023-06-10T09:28:49.477Z,71.60
2023-06-10T09:31:19.458Z,71.30
2023-06-10T09:33:46.622Z,71.00
2023-06-10T09:36:24.321Z,70.90
2023-06-10T09:38:54.453Z,71.20
2023-06-10T09:41:22.580Z,71.00
2023-06-10T09:43:50.186Z,70.90
2023-06-10T09:46:18.123Z,71.00
2023-06-10T09:48:45.998Z,70.90
2023-06-10T09:51:14.379Z,70.40
2023-06-10T09:53:42.790Z,69.10
2023-06-10T09:56:11.151Z,69.20
2023-06-10T09:58:39.532Z,69.00
2023-06-10T10:01:07.428Z,68.90
2023-06-10T10:03:34.367Z,69.00
2023-06-10T10:06:04.545Z,68.80
2023-06-10T10:08:31.540Z,68.20
2023-06-10T10:11:00.293Z,67.80
2023-06-10T10:13:28.956Z,67.70
2023-06-10T10:16:01.019Z,67.40
2023-06-10T10:18:31.602Z,67.20
2023-06-10T10:21:02.161Z,66.80
2023-06-10T10:23:35.599Z,66.90
2023-06-10T10:26:10.505Z,67.40
2023-06-10T10:28:42.555Z,67.60
2023-06-10T10:31:11.842Z,67.50
2023-06-10T10:33:47.016Z,67.40
2023-06-10T10:36:16.521Z,67.30
2023-06-10T10:38:44.118Z,67.30
2023-06-10T10:41:13.092Z,66.90
2023-06-10T10:43:40.223Z,66.50
2023-06-10T10:46:18.435Z,66.00
2023-06-10T10:48:46.664Z,66.00
2023-06-10T10:51:16.548Z,66.00
2023-06-10T10:53:45.676Z,65.90
2023-06-10T10:56:16.942Z,65.60
2023-06-10T10:58:43.815Z,65.30
2023-06-10T11:01:15.927Z,65.00
2023-06-10T11:03:48.122Z,64.40
2023-06-10T11:06:16.825Z,64.20
2023-06-10T11:08:48.702Z,64.20
2023-06-10T11:11:22.617Z,63.90
2023-06-10T11:14:10.737Z,63.10
2023-06-10T11:16:45.140Z,62.50
2023-06-10T11:19:38.573Z,62.70
2023-06-10T11:22:07.815Z,62.10
2023-06-10T11:24:35.058Z,61.80
2023-06-10T11:27:20.447Z,61.30
2023-06-10T11:30:00.674Z,61.20
2023-06-10T11:32:32.043Z,60.80
2023-06-10T11:34:59.461Z,60.40
2023-06-10T11:37:26.448Z,59.50
2023-06-10T11:39:54.504Z,58.70
2023-06-10T11:42:23.264Z,58.30
2023-06-10T11:44:51.189Z,58.20
2023-06-10T11:47:18.332Z,57.90
2023-06-10T11:49:46.536Z,57.40
2023-06-10T11:52:15.038Z,57.10
2023-06-10T11:54:41.875Z,57.00
2023-06-10T11:57:09.627Z,56.50
2023-06-10T11:59:37.921Z,56.30
2023-06-10T12:02:05.402Z,56.40
2023-06-10T12:04:32.316Z,56.40
2023-06-10T12:06:59.266Z,56.70
2023-06-10T12:09:28.285Z,56.90
2023-06-10T12:11:59.260Z,57.00
2023-06-10T12:14:59.091Z,56.80
2023-06-10T12:17:38.385Z,56.50
2023-06-10T12:20:07.603Z,57.00
2023-06-10T12:22:38.230Z,57.00
2023-06-10T12:25:07.868Z,56.80
2023-06-10T12:27:36.311Z,56.80
2023-06-10T12:30:07.016Z,56.90
2023-06-10T12:32:39.479Z,56.80
2023-06-10T12:35:08.649Z,56.60
2023-06-10T12:37:38.642Z,56.60
2023-06-10T12:40:09.874Z,56.60
2023-06-10T12:42:38.105Z,56.50
2023-06-10T12:45:10.230Z,56.10
2023-06-10T12:47:42.403Z,56.20
2023-06-10T12:50:10.332Z,56.20
2023-06-10T12:52:37.355Z,56.10
2023-06-10T12:55:05.278Z,56.20
2023-06-10T12:57:32.588Z,56.50
2023-06-10T13:00:04.770Z,56.80
2023-06-10T13:02:33.401Z,56.50
2023-06-10T13:05:00.458Z,56.30
2023-06-10T13:07:27.530Z,56.20
2023-06-10T13:09:54.509Z,56.10
2023-06-10T13:12:33.693Z,56.20
2023-06-10T13:15:09.693Z,56.60
2023-06-10T13:17:38.074Z,57.20
2023-06-10T13:20:08.690Z,57.60
2023-06-10T13:22:37.600Z,57.40
2023-06-10T13:25:05.554Z,57.30
2023-06-10T13:27:32.520Z,57.20
2023-06-10T13:29:59.466Z,57.10
2023-06-10T13:32:26.410Z,57.00
2023-06-10T13:34:55.052Z,56.60
2023-06-10T13:37:22.052Z,56.30
2023-06-10T13:39:51.567Z,56.50
2023-06-10T13:42:18.578Z,56.70
2023-06-10T13:44:45.511Z,56.70
2023-06-10T13:47:12.603Z,56.70
2023-06-10T13:49:39.707Z,56.60
2023-06-10T13:52:08.871Z,56.30
2023-06-10T13:54:37.147Z,56.10
2023-06-10T13:57:04.514Z,56.20
2023-06-10T13:59:31.419Z,56.00
2023-06-10T14:01:58.438Z,55.90
2023-06-10T14:04:25.269Z,56.00
2023-06-10T14:06:52.413Z,56.20
2023-06-10T14:09:20.660Z,56.40
2023-06-10T14:11:48.584Z,56.10
2023-06-10T14:14:16.027Z,55.70
2023-06-10T14:16:43.723Z,55.60
2023-06-10T14:19:10.873Z,55.60
2023-06-10T14:21:37.826Z,55.90
2023-06-10T14:24:05.084Z,56.10
2023-06-10T14:26:34.167Z,56.20
2023-06-10T14:29:01.208Z,56.40
2023-06-10T14:31:28.177Z,56.70
2023-06-10T14:33:55.189Z,56.90
2023-06-10T14:36:22.038Z,57.00
2023-06-10T14:38:48.951Z,57.00
2023-06-10T14:41:15.790Z,56.80
2023-06-10T14:43:44.117Z,56.80
2023-06-10T14:46:11.111Z,56.90
2023-06-10T14:48:38.036Z,56.80
2023-06-10T14:51:05.046Z,56.50
2023-06-10T14:53:31.927Z,56.50
2023-06-10T14:55:58.804Z,56.40
2023-06-10T14:58:25.735Z,56.30
2023-06-10T15:00:54.010Z,56.30
2023-06-10T15:03:20.949Z,56.20
2023-06-10T15:05:47.985Z,56.00
2023-06-10T15:08:14.853Z,56.00
2023-06-10T15:10:41.813Z,56.00
2023-06-10T15:13:08.693Z,56.00
2023-06-10T15:15:35.512Z,56.00
2023-06-10T15:18:03.951Z,56.10
2023-06-10T15:20:31.216Z,56.10
2023-06-10T15:22:58.065Z,56.10
2023-06-10T15:25:31.276Z,55.80
2023-06-10T15:27:59.512Z,55.60
2023-06-10T15:30:26.573Z,55.50
2023-06-10T15:32:53.577Z,55.70
2023-06-10T15:35:22.860Z,55.80
2023-06-10T15:37:49.812Z,55.70
2023-06-10T15:40:16.681Z,55.80
2023-06-10T15:42:44.392Z,55.70
2023-06-10T15:45:12.063Z,55.90
2023-06-10T15:47:41.629Z,56.10
2023-06-10T15:50:09.181Z,56.00
2023-06-10T15:52:37.457Z,56.00
2023-06-10T15:55:04.796Z,56.20
2023-06-10T15:57:31.613Z,56.30
2023-06-10T15:59:58.530Z,56.30
2023-06-10T16:02:25.762Z,56.40
2023-06-10T16:04:52.698Z,56.50
2023-06-10T16:07:19.553Z,56.50
2023-06-10T16:09:47.832Z,56.80
2023-06-10T16:12:14.794Z,57.30
2023-06-10T16:14:42.736Z,57.60
2023-06-10T16:17:09.691Z,57.60
2023-06-10T16:19:39.924Z,57.60
2023-06-10T16:22:07.218Z,57.70
2023-06-10T16:24:34.332Z,57.70
2023-06-10T16:27:02.574Z,58.40
2023-06-10T16:29:29.484Z,57.90
2023-06-10T16:31:56.369Z,58.00
2023-06-10T16:34:23.286Z,58.10
2023-06-10T16:36:50.578Z,58.00
2023-06-10T16:39:17.513Z,58.10
2023-06-10T16:41:44.373Z,58.40
2023-06-10T16:44:12.679Z,58.80
2023-06-10T16:46:39.605Z,59.00
2023-06-10T16:49:06.570Z,59.10
2023-06-10T16:51:34.320Z,59.10
2023-06-10T16:54:01.282Z,59.10
2023-06-10T16:56:28.620Z,59.30
2023-06-10T16:58:55.519Z,59.30
2023-06-10T17:01:23.781Z,59.50
2023-06-10T17:03:50.981Z,59.60
2023-06-10T17:06:19.304Z,59.70
2023-06-10T17:08:46.834Z,60.00
2023-06-10T17:11:13.712Z,60.30
2023-06-10T17:13:42.246Z,60.40
2023-06-10T17:16:09.552Z,61.50
2023-06-10T17:18:37.911Z,61.10
2023-06-10T17:21:04.766Z,61.40
2023-06-10T17:23:31.679Z,61.60
2023-06-10T17:25:58.619Z,61.70
2023-06-10T17:28:25.711Z,61.70
2023-06-10T17:30:52.560Z,61.80
2023-06-10T17:33:19.578Z,62.20
2023-06-10T17:35:48.071Z,62.20
2023-06-10T17:38:16.593Z,62.30
2023-06-10T17:40:44.058Z,62.40
2023-06-10T17:43:11.100Z,62.70
2023-06-10T17:45:37.992Z,62.90
2023-06-10T17:48:05.578Z,63.30
2023-06-10T17:50:32.558Z,63.60
2023-06-10T17:53:00.861Z,63.90
2023-06-10T17:55:27.801Z,64.40
2023-06-10T17:57:54.687Z,64.70
2023-06-10T18:00:21.562Z,65.10
2023-06-10T18:02:48.521Z,65.50
2023-06-10T18:05:15.522Z,65.50
2023-06-10T18:07:43.321Z,65.40
2023-06-10T18:10:12.089Z,65.40
2023-06-10T18:12:39.414Z,65.40
2023-06-10T18:15:07.554Z,65.50
2023-06-10T18:17:36.542Z,65.60
2023-06-10T18:20:03.711Z,65.80
2023-06-10T18:22:31.045Z,65.90
2023-06-10T18:24:58.142Z,66.00
2023-06-10T18:27:26.413Z,66.30
2023-06-10T18:29:53.273Z,66.50
2023-06-10T18:32:20.329Z,66.80
2023-06-10T18:34:47.461Z,67.00
2023-06-10T18:37:14.438Z,67.40
2023-06-10T18:39:41.709Z,67.50
2023-06-10T18:42:09.236Z,67.70
2023-06-10T18:44:37.423Z,67.70
2023-06-10T18:47:04.782Z,67.80
2023-06-10T18:49:32.470Z,67.90
2023-06-10T18:51:59.398Z,68.20
2023-06-10T18:54:26.315Z,68.40
2023-06-10T18:56:53.176Z,68.70
2023-06-10T18:59:20.234Z,69.00
2023-06-10T19:01:48.499Z,69.10
2023-06-10T19:04:15.421Z,69.10
2023-06-10T19:06:42.621Z,69.10
2023-06-10T19:09:09.556Z,68.90
2023-06-10T19:11:36.452Z,68.90
2023-06-10T19:14:03.623Z,68.80
2023-06-10T19:16:30.700Z,68.80
2023-06-10T19:18:58.871Z,68.80
2023-06-10T19:21:25.691Z,68.70
2023-06-10T19:23:52.618Z,68.80
2023-06-10T19:26:19.512Z,68.80
2023-06-10T19:28:46.494Z,68.90
2023-06-10T19:31:13.511Z,68.90
2023-06-10T19:33:40.394Z,69.00
2023-06-10T19:36:08.903Z,69.00
2023-06-10T19:38:36.378Z,69.10
2023-06-10T19:41:05.033Z,69.10
2023-06-10T19:43:32.059Z,69.20
2023-06-10T19:45:58.969Z,69.40
2023-06-10T19:48:25.873Z,69.50
2023-06-10T19:50:52.755Z,69.60
2023-06-10T19:53:21.106Z,69.60
2023-06-10T19:55:47.980Z,69.60
2023-06-10T19:58:14.966Z,69.60
2023-06-10T20:00:41.939Z,69.70
2023-06-10T20:03:09.061Z,69.80
2023-06-10T20:05:38.928Z,70.00
2023-06-10T20:08:06.550Z,70.20
2023-06-10T20:10:34.971Z,70.30
2023-06-10T20:13:02.131Z,70.40
2023-06-10T20:15:29.066Z,70.50
2023-06-10T20:17:56.062Z,70.60
2023-06-10T20:20:22.960Z,71.00
2023-06-10T20:22:49.782Z,71.10
2023-06-10T20:25:17.177Z,71.40
2023-06-10T20:27:45.392Z,71.50
2023-06-10T20:30:13.725Z,71.80
2023-06-10T20:32:40.637Z,72.70
2023-06-10T20:35:08.954Z,72.00
2023-06-10T20:37:36.077Z,72.00
2023-06-10T20:40:05.006Z,72.20
2023-06-10T20:42:31.965Z,72.40
2023-06-10T20:45:00.628Z,72.60
2023-06-10T20:47:27.624Z,72.70
2023-06-10T20:49:54.571Z,72.90
2023-06-10T20:52:21.518Z,72.90
2023-06-10T20:54:48.451Z,73.10
2023-06-10T20:57:15.615Z,73.30
2023-06-10T20:59:42.549Z,73.40
2023-06-10T21:02:11.184Z,73.40
2023-06-10T21:04:38.172Z,73.60
2023-06-10T21:07:05.923Z,73.60
2023-06-10T21:09:32.803Z,73.90
2023-06-10T21:11:59.710Z,74.00
2023-06-10T21:14:26.607Z,74.30
2023-06-10T21:16:53.460Z,74.50
2023-06-10T21:19:21.670Z,74.90
2023-06-10T21:21:48.587Z,75.20
2023-06-10T21:24:15.903Z,75.40
2023-06-10T21:26:42.851Z,75.70
2023-06-10T21:29:10.823Z,75.90
2023-06-10T21:31:38.252Z,76.00
2023-06-10T21:34:05.336Z,76.20
2023-06-10T21:36:33.576Z,76.30
2023-06-10T21:39:00.437Z,76.40
2023-06-10T21:41:30.307Z,76.50
2023-06-10T21:43:57.566Z,76.70
2023-06-10T21:46:24.724Z,76.90
2023-06-10T21:48:51.694Z,76.90
2023-06-10T21:51:18.849Z,77.10
2023-06-10T21:53:47.146Z,77.20
2023-06-10T21:56:13.979Z,77.30
2023-06-10T21:58:41.270Z,77.50
2023-06-10T22:01:08.303Z,77.70
2023-06-10T22:03:35.164Z,78.00
2023-06-10T22:06:03.070Z,77.90
2023-06-10T22:08:30.099Z,78.00
2023-06-10T22:10:58.569Z,78.10
2023-06-10T22:13:25.662Z,78.10
2023-06-10T22:15:52.559Z,78.20
2023-06-10T22:18:19.540Z,78.20
2023-06-10T22:20:46.850Z,78.20
2023-06-10T22:23:19.683Z,78.50
2023-06-10T22:25:46.713Z,78.40
2023-06-10T22:28:15.222Z,78.40
2023-06-10T22:30:42.623Z,78.40
2023-06-10T22:33:12.624Z,78.40
2023-06-10T22:35:39.775Z,78.40
2023-06-10T22:38:06.858Z,78.50
2023-06-10T22:40:33.766Z,78.60
2023-06-10T22:43:01.203Z,78.80
2023-06-10T22:45:29.424Z,78.80
2023-06-10T22:47:56.586Z,79.00
2023-06-10T22:50:25.042Z,79.00
2023-06-10T22:52:52.958Z,79.10
2023-06-10T22:55:19.863Z,79.20
2023-06-10T22:57:46.813Z,79.20
2023-06-10T23:00:15.603Z,79.30
2023-06-10T23:02:44.027Z,79.30
2023-06-10T23:05:14.164Z,79.40
2023-06-10T23:07:41.285Z,79.60
2023-06-10T23:10:09.173Z,79.80
2023-06-10T23:12:36.110Z,79.90
2023-06-10T23:15:03.748Z,80.00
2023-06-10T23:17:30.733Z,80.10
2023-06-10T23:19:59.507Z,80.20
2023-06-10T23:22:26.817Z,80.30
2023-06-10T23:24:57.342Z,80.30
2023-06-10T23:27:24.385Z,80.30
2023-06-10T23:29:59.169Z,80.40
2023-06-10T23:32:27.399Z,80.60
2023-06-10T23:34:54.604Z,80.60
2023-06-10T23:37:22.871Z,80.70
2023-06-10T23:39:49.801Z,80.90
2023-06-10T23:42:17.395Z,81.00
2023-06-10T23:44:44.326Z,81.10
2023-06-10T23:47:11.306Z,81.20
2023-06-10T23:49:38.183Z,81.40
2023-06-10T23:52:06.632Z,81.40
2023-06-10T23:54:34.928Z,81.60
2023-06-10T23:57:03.364Z,81.70
2023-06-10T23:59:30.325Z,81.80
